sensor_id;sensor_type;location;lat;lon;timestamp;P1;durP1;ratioP1;P2;durP2;ratioP2
7621;SDS011;3852;52.284;8.032;2022-12-29T00:01:33;7.30;;;6.70;;
7621;SDS011;3852;52.284;8.032;2022-12-29T00:04:01;7.73;;;7.03;;
7621;SDS011;3852;52.284;8.032;2022-12-29T00:06:27;7.93;;;7.33;;
7621;SDS011;3852;52.284;8.032;2022-12-29T00:08:53;7.83;;;7.23;;
7621;SDS011;3852;52.284;8.032;2022-12-29T00:11:21;7.90;;;7.20;;
7621;SDS011;3852;52.284;8.032;2022-12-29T00:13:52;7.47;;;6.87;;
7621;SDS011;3852;52.284;8.032;2022-12-29T00:16:37;7.73;;;7.13;;
7621;SDS011;3852;52.284;8.032;2022-12-29T00:19:09;7.37;;;6.77;;
7621;SDS011;3852;52.284;8.032;2022-12-29T00:21:56;7.37;;;6.77;;
7621;SDS011;3852;52.284;8.032;2022-12-29T00:24:41;7.03;;;6.43;;
7621;SDS011;3852;52.284;8.032;2022-12-29T00:27:27;6.67;;;6.17;;
7621;SDS011;3852;52.284;8.032;2022-12-29T00:30:15;6.13;;;5.63;;
7621;SDS011;3852;52.284;8.032;2022-12-29T00:33:35;6.47;;;5.97;;
7621;SDS011;3852;52.284;8.032;2022-12-29T00:36:18;6.70;;;6.20;;
7621;SDS011;3852;52.284;8.032;2022-12-29T00:38:58;6.60;;;6.10;;
7621;SDS011;3852;52.284;8.032;2022-12-29T00:41:47;6.73;;;6.13;;
7621;SDS011;3852;52.284;8.032;2022-12-29T00:44:31;6.30;;;5.77;;
7621;SDS011;3852;52.284;8.032;2022-12-29T00:46:57;5.67;;;5.27;;
7621;SDS011;3852;52.284;8.032;2022-12-29T00:49:28;5.47;;;5.07;;
7621;SDS011;3852;52.284;8.032;2022-12-29T00:54:30;5.47;;;5.07;;
7621;SDS011;3852;52.284;8.032;2022-12-29T00:56:58;6.00;;;5.43;;
7621;SDS011;3852;52.284;8.032;2022-12-29T00:59:24;5.30;;;4.90;;
7621;SDS011;3852;52.284;8.032;2022-12-29T01:01:51;5.77;;;5.37;;
7621;SDS011;3852;52.284;8.032;2022-12-29T01:04:19;5.23;;;4.80;;
7621;SDS011;3852;52.284;8.032;2022-12-29T01:06:46;5.00;;;4.70;;
7621;SDS011;3852;52.284;8.032;2022-12-29T01:09:12;4.67;;;4.37;;
7621;SDS011;3852;52.284;8.032;2022-12-29T01:11:56;4.67;;;4.37;;
7621;SDS011;3852;52.284;8.032;2022-12-29T01:14:23;4.90;;;4.40;;
7621;SDS011;3852;52.284;8.032;2022-12-29T01:16:50;4.80;;;4.40;;
7621;SDS011;3852;52.284;8.032;2022-12-29T01:19:17;4.60;;;4.20;;
7621;SDS011;3852;52.284;8.032;2022-12-29T01:21:43;4.43;;;4.07;;
7621;SDS011;3852;52.284;8.032;2022-12-29T01:24:10;4.20;;;3.90;;
7621;SDS011;3852;52.284;8.032;2022-12-29T01:26:36;4.47;;;4.17;;
7621;SDS011;3852;52.284;8.032;2022-12-29T01:29:02;4.00;;;3.70;;
7621;SDS011;3852;52.284;8.032;2022-12-29T01:31:28;4.00;;;3.70;;
7621;SDS011;3852;52.284;8.032;2022-12-29T01:33:53;3.53;;;3.33;;
7621;SDS011;3852;52.284;8.032;2022-12-29T01:36:19;3.10;;;2.90;;
7621;SDS011;3852;52.284;8.032;2022-12-29T01:38:45;4.03;;;3.43;;
7621;SDS011;3852;52.284;8.032;2022-12-29T01:41:12;3.90;;;3.60;;
7621;SDS011;3852;52.284;8.032;2022-12-29T01:49:13;3.20;;;3.00;;
7621;SDS011;3852;52.284;8.032;2022-12-29T01:51:57;3.00;;;2.80;;
7621;SDS011;3852;52.284;8.032;2022-12-29T01:54:28;3.40;;;3.20;;
7621;SDS011;3852;52.284;8.032;2022-12-29T01:57:17;3.50;;;3.20;;
7621;SDS011;3852;52.284;8.032;2022-12-29T01:59:56;3.57;;;3.37;;
7621;SDS011;3852;52.284;8.032;2022-12-29T02:02:33;4.40;;;4.10;;
7621;SDS011;3852;52.284;8.032;2022-12-29T02:05:01;4.50;;;4.20;;
7621;SDS011;3852;52.284;8.032;2022-12-29T02:07:38;4.67;;;4.37;;
7621;SDS011;3852;52.284;8.032;2022-12-29T02:10:06;5.70;;;5.30;;
7621;SDS011;3852;52.284;8.032;2022-12-29T02:12:32;6.40;;;5.90;;
7621;SDS011;3852;52.284;8.032;2022-12-29T02:14:59;5.80;;;5.40;;
7621;SDS011;3852;52.284;8.032;2022-12-29T02:24:12;5.23;;;4.93;;
7621;SDS011;3852;52.284;8.032;2022-12-29T02:29:50;5.00;;;4.70;;
7621;SDS011;3852;52.284;8.032;2022-12-29T02:32:39;5.27;;;4.87;;
7621;SDS011;3852;52.284;8.032;2022-12-29T02:40:49;4.90;;;4.60;;
7621;SDS011;3852;52.284;8.032;2022-12-29T02:46:20;5.77;;;4.93;;
7621;SDS011;3852;52.284;8.032;2022-12-29T02:49:14;5.77;;;5.37;;
7621;SDS011;3852;52.284;8.032;2022-12-29T02:52:15;5.63;;;5.17;;
7621;SDS011;3852;52.284;8.032;2022-12-29T02:54:48;5.37;;;4.97;;
7621;SDS011;3852;52.284;8.032;2022-12-29T02:57:26;4.63;;;4.23;;
7621;SDS011;3852;52.284;8.032;2022-12-29T03:00:09;4.30;;;4.10;;
7621;SDS011;3852;52.284;8.032;2022-12-29T03:05:57;3.90;;;3.70;;
7621;SDS011;3852;52.284;8.032;2022-12-29T03:08:34;3.57;;;3.37;;
7621;SDS011;3852;52.284;8.032;2022-12-29T03:11:14;3.03;;;2.83;;
7621;SDS011;3852;52.284;8.032;2022-12-29T03:17:09;2.73;;;2.57;;
7621;SDS011;3852;52.284;8.032;2022-12-29T03:19:50;2.23;;;2.13;;
7621;SDS011;3852;52.284;8.032;2022-12-29T03:22:19;2.53;;;2.40;;
7621;SDS011;3852;52.284;8.032;2022-12-29T03:25:18;2.30;;;2.20;;
7621;SDS011;3852;52.284;8.032;2022-12-29T03:27:50;2.53;;;2.00;;
7621;SDS011;3852;52.284;8.032;2022-12-29T03:30:30;2.00;;;1.90;;
7621;SDS011;3852;52.284;8.032;2022-12-29T03:33:00;2.30;;;2.10;;
7621;SDS011;3852;52.284;8.032;2022-12-29T03:35:30;1.70;;;1.60;;
7621;SDS011;3852;52.284;8.032;2022-12-29T03:38:08;1.70;;;1.60;;
7621;SDS011;3852;52.284;8.032;2022-12-29T03:40:48;1.70;;;1.60;;
7621;SDS011;3852;52.284;8.032;2022-12-29T03:43:20;1.70;;;1.60;;
7621;SDS011;3852;52.284;8.032;2022-12-29T03:45:47;2.80;;;1.50;;
7621;SDS011;3852;52.284;8.032;2022-12-29T03:48:13;1.40;;;1.40;;
7621;SDS011;3852;52.284;8.032;2022-12-29T03:50:39;1.33;;;1.33;;
7621;SDS011;3852;52.284;8.032;2022-12-29T03:53:05;1.50;;;1.50;;
7621;SDS011;3852;52.284;8.032;2022-12-29T03:55:30;1.20;;;1.20;;
7621;SDS011;3852;52.284;8.032;2022-12-29T03:57:56;1.07;;;1.07;;
7621;SDS011;3852;52.284;8.032;2022-12-29T04:00:22;1.10;;;1.10;;
7621;SDS011;3852;52.284;8.032;2022-12-29T04:02:48;1.50;;;1.40;;
7621;SDS011;3852;52.284;8.032;2022-12-29T04:05:17;1.43;;;1.30;;
7621;SDS011;3852;52.284;8.032;2022-12-29T04:07:42;1.97;;;1.50;;
7621;SDS011;3852;52.284;8.032;2022-12-29T04:10:08;1.47;;;1.37;;
7621;SDS011;3852;52.284;8.032;2022-12-29T04:12:34;1.40;;;1.30;;
7621;SDS011;3852;52.284;8.032;2022-12-29T04:15:00;1.50;;;1.20;;
7621;SDS011;3852;52.284;8.032;2022-12-29T04:17:26;1.83;;;1.20;;
7621;SDS011;3852;52.284;8.032;2022-12-29T04:19:51;1.70;;;1.10;;
7621;SDS011;3852;52.284;8.032;2022-12-29T04:22:37;1.67;;;1.33;;
7621;SDS011;3852;52.284;8.032;2022-12-29T04:25:03;1.87;;;1.10;;
7621;SDS011;3852;52.284;8.032;2022-12-29T04:27:29;1.30;;;1.20;;
7621;SDS011;3852;52.284;8.032;2022-12-29T04:29:55;1.30;;;1.20;;
7621;SDS011;3852;52.284;8.032;2022-12-29T04:32:21;1.57;;;1.23;;
7621;SDS011;3852;52.284;8.032;2022-12-29T04:34:46;1.93;;;1.40;;
7621;SDS011;3852;52.284;8.032;2022-12-29T04:37:12;1.20;;;1.10;;
7621;SDS011;3852;52.284;8.032;2022-12-29T04:39:38;1.30;;;1.30;;
7621;SDS011;3852;52.284;8.032;2022-12-29T04:42:04;2.00;;;1.27;;
7621;SDS011;3852;52.284;8.032;2022-12-29T04:44:32;2.20;;;1.83;;
7621;SDS011;3852;52.284;8.032;2022-12-29T04:46:57;1.37;;;1.27;;
7621;SDS011;3852;52.284;8.032;2022-12-29T04:49:23;2.47;;;1.20;;
7621;SDS011;3852;52.284;8.032;2022-12-29T04:51:49;1.27;;;1.17;;
7621;SDS011;3852;52.284;8.032;2022-12-29T04:54:15;1.53;;;1.30;;
7621;SDS011;3852;52.284;8.032;2022-12-29T04:56:41;1.20;;;1.10;;
7621;SDS011;3852;52.284;8.032;2022-12-29T04:59:09;1.70;;;1.20;;
7621;SDS011;3852;52.284;8.032;2022-12-29T05:01:35;1.40;;;1.30;;
7621;SDS011;3852;52.284;8.032;2022-12-29T05:04:01;1.07;;;1.07;;
7621;SDS011;3852;52.284;8.032;2022-12-29T05:06:27;1.10;;;1.00;;
7621;SDS011;3852;52.284;8.032;2022-12-29T05:08:52;1.93;;;1.30;;
7621;SDS011;3852;52.284;8.032;2022-12-29T05:11:18;1.03;;;1.00;;
7621;SDS011;3852;52.284;8.032;2022-12-29T05:13:45;1.73;;;0.97;;
7621;SDS011;3852;52.284;8.032;2022-12-29T05:16:11;0.90;;;0.90;;
7621;SDS011;3852;52.284;8.032;2022-12-29T05:18:37;1.20;;;1.10;;
7621;SDS011;3852;52.284;8.032;2022-12-29T05:21:03;1.10;;;1.10;;
7621;SDS011;3852;52.284;8.032;2022-12-29T05:23:29;1.30;;;1.23;;
7621;SDS011;3852;52.284;8.032;2022-12-29T05:25:55;1.10;;;1.10;;
7621;SDS011;3852;52.284;8.032;2022-12-29T05:28:21;3.33;;;1.50;;
7621;SDS011;3852;52.284;8.032;2022-12-29T05:30:50;1.43;;;1.30;;
7621;SDS011;3852;52.284;8.032;2022-12-29T05:33:17;1.90;;;1.30;;
7621;SDS011;3852;52.284;8.032;2022-12-29T05:35:44;1.37;;;1.27;;
7621;SDS011;3852;52.284;8.032;2022-12-29T05:38:10;2.00;;;1.50;;
7621;SDS011;3852;52.284;8.032;2022-12-29T05:40:36;1.40;;;1.30;;
7621;SDS011;3852;52.284;8.032;2022-12-29T05:43:02;3.17;;;1.60;;
7621;SDS011;3852;52.284;8.032;2022-12-29T05:45:27;2.90;;;1.60;;
7621;SDS011;3852;52.284;8.032;2022-12-29T05:47:53;1.40;;;1.40;;
7621;SDS011;3852;52.284;8.032;2022-12-29T05:50:19;1.80;;;1.30;;
7621;SDS011;3852;52.284;8.032;2022-12-29T05:52:45;1.63;;;1.20;;
7621;SDS011;3852;52.284;8.032;2022-12-29T05:55:11;1.83;;;1.00;;
7621;SDS011;3852;52.284;8.032;2022-12-29T05:57:37;2.93;;;1.17;;
7621;SDS011;3852;52.284;8.032;2022-12-29T06:00:06;1.10;;;1.10;;
7621;SDS011;3852;52.284;8.032;2022-12-29T06:02:33;1.60;;;1.27;;
7621;SDS011;3852;52.284;8.032;2022-12-29T06:04:58;5.50;;;1.20;;
7621;SDS011;3852;52.284;8.032;2022-12-29T06:07:24;0.93;;;0.93;;
7621;SDS011;3852;52.284;8.032;2022-12-29T06:09:53;1.90;;;1.00;;
7621;SDS011;3852;52.284;8.032;2022-12-29T06:12:19;1.43;;;0.90;;
7621;SDS011;3852;52.284;8.032;2022-12-29T06:14:44;2.30;;;0.80;;
7621;SDS011;3852;52.284;8.032;2022-12-29T06:17:10;1.20;;;0.90;;
7621;SDS011;3852;52.284;8.032;2022-12-29T06:19:36;1.73;;;0.77;;
7621;SDS011;3852;52.284;8.032;2022-12-29T06:22:02;0.70;;;0.70;;
7621;SDS011;3852;52.284;8.032;2022-12-29T06:24:28;0.70;;;0.70;;
7621;SDS011;3852;52.284;8.032;2022-12-29T06:26:54;2.00;;;0.80;;
7621;SDS011;3852;52.284;8.032;2022-12-29T06:29:19;1.77;;;0.73;;
7621;SDS011;3852;52.284;8.032;2022-12-29T06:31:45;1.63;;;0.70;;
7621;SDS011;3852;52.284;8.032;2022-12-29T06:34:12;1.13;;;0.77;;
7621;SDS011;3852;52.284;8.032;2022-12-29T06:36:38;1.10;;;1.00;;
7621;SDS011;3852;52.284;8.032;2022-12-29T06:39:04;3.60;;;1.20;;
7621;SDS011;3852;52.284;8.032;2022-12-29T06:41:30;1.40;;;0.80;;
7621;SDS011;3852;52.284;8.032;2022-12-29T06:43:56;2.00;;;0.80;;
7621;SDS011;3852;52.284;8.032;2022-12-29T06:46:22;4.57;;;1.00;;
7621;SDS011;3852;52.284;8.032;2022-12-29T06:48:48;4.13;;;1.13;;
7621;SDS011;3852;52.284;8.032;2022-12-29T06:51:14;2.97;;;1.20;;
7621;SDS011;3852;52.284;8.032;2022-12-29T06:53:39;1.40;;;1.13;;
7621;SDS011;3852;52.284;8.032;2022-12-29T06:56:05;1.73;;;1.10;;
7621;SDS011;3852;52.284;8.032;2022-12-29T06:58:31;1.57;;;1.07;;
7621;SDS011;3852;52.284;8.032;2022-12-29T07:00:57;3.30;;;1.10;;
7621;SDS011;3852;52.284;8.032;2022-12-29T07:03:23;1.40;;;1.00;;
7621;SDS011;3852;52.284;8.032;2022-12-29T07:05:49;1.47;;;1.13;;
7621;SDS011;3852;52.284;8.032;2022-12-29T07:08:15;3.50;;;1.30;;
7621;SDS011;3852;52.284;8.032;2022-12-29T07:10:41;3.53;;;1.20;;
7621;SDS011;3852;52.284;8.032;2022-12-29T07:13:06;2.07;;;1.17;;
7621;SDS011;3852;52.284;8.032;2022-12-29T07:15:36;3.60;;;1.37;;
7621;SDS011;3852;52.284;8.032;2022-12-29T07:18:02;5.70;;;1.50;;
7621;SDS011;3852;52.284;8.032;2022-12-29T07:20:29;5.67;;;1.70;;
7621;SDS011;3852;52.284;8.032;2022-12-29T07:22:55;4.97;;;1.60;;
7621;SDS011;3852;52.284;8.032;2022-12-29T07:25:21;5.00;;;1.67;;
7621;SDS011;3852;52.284;8.032;2022-12-29T07:27:47;4.50;;;1.60;;
7621;SDS011;3852;52.284;8.032;2022-12-29T07:30:13;3.83;;;1.63;;
7621;SDS011;3852;52.284;8.032;2022-12-29T07:32:39;3.03;;;1.57;;
7621;SDS011;3852;52.284;8.032;2022-12-29T07:35:06;3.63;;;1.37;;
7621;SDS011;3852;52.284;8.032;2022-12-29T07:37:33;6.30;;;1.50;;
7621;SDS011;3852;52.284;8.032;2022-12-29T07:40:00;3.90;;;1.10;;
7621;SDS011;3852;52.284;8.032;2022-12-29T07:42:28;2.07;;;1.00;;
7621;SDS011;3852;52.284;8.032;2022-12-29T07:44:54;3.33;;;1.10;;
7621;SDS011;3852;52.284;8.032;2022-12-29T07:47:20;3.00;;;1.20;;
7621;SDS011;3852;52.284;8.032;2022-12-29T07:49:46;2.67;;;1.30;;
7621;SDS011;3852;52.284;8.032;2022-12-29T07:52:12;2.20;;;1.20;;
7621;SDS011;3852;52.284;8.032;2022-12-29T07:54:38;3.67;;;1.30;;
7621;SDS011;3852;52.284;8.032;2022-12-29T07:57:04;3.50;;;1.33;;
7621;SDS011;3852;52.284;8.032;2022-12-29T07:59:31;3.37;;;1.40;;
7621;SDS011;3852;52.284;8.032;2022-12-29T08:01:57;2.90;;;1.23;;
7621;SDS011;3852;52.284;8.032;2022-12-29T08:04:25;2.53;;;1.40;;
7621;SDS011;3852;52.284;8.032;2022-12-29T08:06:51;4.17;;;1.40;;
7621;SDS011;3852;52.284;8.032;2022-12-29T08:09:17;5.13;;;1.37;;
7621;SDS011;3852;52.284;8.032;2022-12-29T08:11:43;3.50;;;1.30;;
7621;SDS011;3852;52.284;8.032;2022-12-29T08:14:11;5.83;;;1.10;;
7621;SDS011;3852;52.284;8.032;2022-12-29T08:16:37;4.63;;;1.40;;
7621;SDS011;3852;52.284;8.032;2022-12-29T08:19:03;4.20;;;1.23;;
7621;SDS011;3852;52.284;8.032;2022-12-29T08:21:30;4.90;;;1.23;;
7621;SDS011;3852;52.284;8.032;2022-12-29T08:23:56;4.73;;;1.27;;
7621;SDS011;3852;52.284;8.032;2022-12-29T08:26:22;7.57;;;1.50;;
7621;SDS011;3852;52.284;8.032;2022-12-29T08:28:48;2.97;;;1.37;;
7621;SDS011;3852;52.284;8.032;2022-12-29T08:31:13;3.33;;;1.40;;
7621;SDS011;3852;52.284;8.032;2022-12-29T08:33:39;2.30;;;1.20;;
7621;SDS011;3852;52.284;8.032;2022-12-29T08:36:06;4.23;;;1.33;;
7621;SDS011;3852;52.284;8.032;2022-12-29T08:38:33;2.70;;;1.20;;
7621;SDS011;3852;52.284;8.032;2022-12-29T08:40:59;3.40;;;1.30;;
7621;SDS011;3852;52.284;8.032;2022-12-29T08:43:26;6.83;;;1.40;;
7621;SDS011;3852;52.284;8.032;2022-12-29T08:45:53;2.33;;;1.00;;
7621;SDS011;3852;52.284;8.032;2022-12-29T08:48:19;2.67;;;1.20;;
7621;SDS011;3852;52.284;8.032;2022-12-29T08:50:47;3.70;;;1.40;;
7621;SDS011;3852;52.284;8.032;2022-12-29T08:53:14;4.77;;;1.40;;
7621;SDS011;3852;52.284;8.032;2022-12-29T08:55:39;1.37;;;1.10;;
7621;SDS011;3852;52.284;8.032;2022-12-29T08:58:07;2.93;;;1.10;;
7621;SDS011;3852;52.284;8.032;2022-12-29T09:00:33;3.30;;;1.30;;
7621;SDS011;3852;52.284;8.032;2022-12-29T09:03:00;1.83;;;1.00;;
7621;SDS011;3852;52.284;8.032;2022-12-29T09:05:26;3.30;;;1.40;;
7621;SDS011;3852;52.284;8.032;2022-12-29T09:07:51;3.10;;;1.43;;
7621;SDS011;3852;52.284;8.032;2022-12-29T09:10:17;4.33;;;1.20;;
7621;SDS011;3852;52.284;8.032;2022-12-29T09:12:43;5.43;;;1.63;;
7621;SDS011;3852;52.284;8.032;2022-12-29T09:15:09;4.77;;;1.50;;
7621;SDS011;3852;52.284;8.032;2022-12-29T09:17:35;3.17;;;1.57;;
7621;SDS011;3852;52.284;8.032;2022-12-29T09:20:11;3.00;;;1.40;;
7621;SDS011;3852;52.284;8.032;2022-12-29T09:22:38;4.20;;;1.20;;
7621;SDS011;3852;52.284;8.032;2022-12-29T09:25:04;3.77;;;1.30;;
7621;SDS011;3852;52.284;8.032;2022-12-29T09:27:31;5.30;;;1.50;;
7621;SDS011;3852;52.284;8.032;2022-12-29T09:29:57;4.73;;;1.37;;
7621;SDS011;3852;52.284;8.032;2022-12-29T09:32:22;3.47;;;1.10;;
7621;SDS011;3852;52.284;8.032;2022-12-29T09:34:48;3.90;;;1.37;;
7621;SDS011;3852;52.284;8.032;2022-12-29T09:37:14;3.83;;;1.47;;
7621;SDS011;3852;52.284;8.032;2022-12-29T09:39:40;5.33;;;1.30;;
7621;SDS011;3852;52.284;8.032;2022-12-29T09:42:14;4.37;;;1.80;;
7621;SDS011;3852;52.284;8.032;2022-12-29T09:47:42;6.17;;;1.40;;
7621;SDS011;3852;52.284;8.032;2022-12-29T09:50:23;3.90;;;1.20;;
7621;SDS011;3852;52.284;8.032;2022-12-29T09:53:20;7.00;;;1.80;;
7621;SDS011;3852;52.284;8.032;2022-12-29T09:55:54;5.30;;;1.67;;
7621;SDS011;3852;52.284;8.032;2022-12-29T09:58:57;3.77;;;1.60;;
7621;SDS011;3852;52.284;8.032;2022-12-29T10:03:59;4.43;;;1.40;;
7621;SDS011;3852;52.284;8.032;2022-12-29T10:06:39;4.97;;;1.67;;
7621;SDS011;3852;52.284;8.032;2022-12-29T10:11:56;5.67;;;1.77;;
7621;SDS011;3852;52.284;8.032;2022-12-29T10:14:57;4.13;;;1.33;;
7621;SDS011;3852;52.284;8.032;2022-12-29T10:23:48;5.97;;;1.80;;
7621;SDS011;3852;52.284;8.032;2022-12-29T10:26:28;5.03;;;1.63;;
7621;SDS011;3852;52.284;8.032;2022-12-29T10:29:05;5.80;;;1.47;;
7621;SDS011;3852;52.284;8.032;2022-12-29T10:35:11;2.90;;;1.30;;
7621;SDS011;3852;52.284;8.032;2022-12-29T10:38:04;2.97;;;1.33;;
7621;SDS011;3852;52.284;8.032;2022-12-29T10:41:08;6.67;;;1.70;;
7621;SDS011;3852;52.284;8.032;2022-12-29T10:46:11;5.67;;;1.70;;
7621;SDS011;3852;52.284;8.032;2022-12-29T10:48:43;4.37;;;1.47;;
7621;SDS011;3852;52.284;8.032;2022-12-29T10:51:16;4.27;;;1.60;;
7621;SDS011;3852;52.284;8.032;2022-12-29T10:53:52;7.07;;;1.73;;
7621;SDS011;3852;52.284;8.032;2022-12-29T10:59:37;5.80;;;1.70;;
7621;SDS011;3852;52.284;8.032;2022-12-29T11:07:21;5.87;;;1.40;;
7621;SDS011;3852;52.284;8.032;2022-12-29T11:09:47;4.03;;;1.20;;
7621;SDS011;3852;52.284;8.032;2022-12-29T11:20:29;5.00;;;1.10;;
7621;SDS011;3852;52.284;8.032;2022-12-29T11:23:04;5.23;;;2.00;;
7621;SDS011;3852;52.284;8.032;2022-12-29T11:28:38;3.63;;;1.60;;
7621;SDS011;3852;52.284;8.032;2022-12-29T11:31:07;4.00;;;1.53;;
7621;SDS011;3852;52.284;8.032;2022-12-29T11:33:38;6.23;;;1.80;;
7621;SDS011;3852;52.284;8.032;2022-12-29T11:36:15;4.80;;;1.10;;
7621;SDS011;3852;52.284;8.032;2022-12-29T11:38:46;3.47;;;1.50;;
7621;SDS011;3852;52.284;8.032;2022-12-29T11:41:22;5.43;;;1.20;;
7621;SDS011;3852;52.284;8.032;2022-12-29T11:43:55;5.20;;;1.43;;
7621;SDS011;3852;52.284;8.032;2022-12-29T11:46:29;3.60;;;1.30;;
7621;SDS011;3852;52.284;8.032;2022-12-29T11:48:59;3.63;;;1.30;;
7621;SDS011;3852;52.284;8.032;2022-12-29T11:51:30;5.90;;;1.37;;
7621;SDS011;3852;52.284;8.032;2022-12-29T11:54:09;3.80;;;1.20;;
7621;SDS011;3852;52.284;8.032;2022-12-29T11:56:48;4.70;;;1.47;;
7621;SDS011;3852;52.284;8.032;2022-12-29T11:59:23;6.67;;;1.30;;
7621;SDS011;3852;52.284;8.032;2022-12-29T12:01:54;6.00;;;1.50;;
7621;SDS011;3852;52.284;8.032;2022-12-29T12:04:24;4.80;;;1.83;;
7621;SDS011;3852;52.284;8.032;2022-12-29T12:09:49;6.97;;;1.50;;
7621;SDS011;3852;52.284;8.032;2022-12-29T12:12:24;5.90;;;1.50;;
7621;SDS011;3852;52.284;8.032;2022-12-29T12:15:39;1.53;;;1.20;;
7621;SDS011;3852;52.284;8.032;2022-12-29T12:18:10;5.47;;;1.40;;
7621;SDS011;3852;52.284;8.032;2022-12-29T12:20:45;2.73;;;1.17;;
7621;SDS011;3852;52.284;8.032;2022-12-29T12:26:17;3.33;;;1.37;;
7621;SDS011;3852;52.284;8.032;2022-12-29T12:29:01;4.67;;;1.30;;
7621;SDS011;3852;52.284;8.032;2022-12-29T12:31:55;3.70;;;1.43;;
7621;SDS011;3852;52.284;8.032;2022-12-29T12:34:29;7.33;;;1.57;;
7621;SDS011;3852;52.284;8.032;2022-12-29T12:48:57;3.60;;;1.30;;
7621;SDS011;3852;52.284;8.032;2022-12-29T12:52:08;8.00;;;1.93;;
7621;SDS011;3852;52.284;8.032;2022-12-29T12:57:52;4.67;;;1.50;;
7621;SDS011;3852;52.284;8.032;2022-12-29T13:00:22;4.97;;;1.63;;
7621;SDS011;3852;52.284;8.032;2022-12-29T13:12:25;4.67;;;1.70;;
7621;SDS011;3852;52.284;8.032;2022-12-29T13:15:21;3.83;;;1.30;;
7621;SDS011;3852;52.284;8.032;2022-12-29T13:24:28;4.60;;;1.50;;
7621;SDS011;3852;52.284;8.032;2022-12-29T13:27:44;4.23;;;1.40;;
7621;SDS011;3852;52.284;8.032;2022-12-29T13:30:20;6.17;;;1.50;;
7621;SDS011;3852;52.284;8.032;2022-12-29T13:38:28;4.40;;;1.60;;
7621;SDS011;3852;52.284;8.032;2022-12-29T13:41:20;9.10;;;1.70;;
7621;SDS011;3852;52.284;8.032;2022-12-29T13:44:05;4.87;;;1.30;;
7621;SDS011;3852;52.284;8.032;2022-12-29T13:46:40;5.37;;;1.93;;
7621;SDS011;3852;52.284;8.032;2022-12-29T13:49:14;7.07;;;1.90;;
7621;SDS011;3852;52.284;8.032;2022-12-29T13:51:49;5.53;;;1.63;;
7621;SDS011;3852;52.284;8.032;2022-12-29T13:57:41;3.23;;;1.60;;
7621;SDS011;3852;52.284;8.032;2022-12-29T14:00:19;4.00;;;1.93;;
7621;SDS011;3852;52.284;8.032;2022-12-29T14:05:29;5.80;;;1.90;;
7621;SDS011;3852;52.284;8.032;2022-12-29T14:07:57;4.13;;;1.80;;
7621;SDS011;3852;52.284;8.032;2022-12-29T14:15:40;5.57;;;1.93;;
7621;SDS011;3852;52.284;8.032;2022-12-29T14:18:18;8.10;;;1.80;;
7621;SDS011;3852;52.284;8.032;2022-12-29T14:23:41;4.60;;;1.50;;
7621;SDS011;3852;52.284;8.032;2022-12-29T14:28:56;5.20;;;1.70;;
7621;SDS011;3852;52.284;8.032;2022-12-29T14:31:41;4.53;;;1.70;;
7621;SDS011;3852;52.284;8.032;2022-12-29T14:36:37;3.73;;;1.70;;
7621;SDS011;3852;52.284;8.032;2022-12-29T14:42:06;7.57;;;1.83;;
7621;SDS011;3852;52.284;8.032;2022-12-29T14:50:18;5.33;;;1.60;;
7621;SDS011;3852;52.284;8.032;2022-12-29T14:53:03;5.87;;;1.77;;
7621;SDS011;3852;52.284;8.032;2022-12-29T14:55:38;6.33;;;3.07;;
7621;SDS011;3852;52.284;8.032;2022-12-29T14:58:20;11.03;;;2.30;;
7621;SDS011;3852;52.284;8.032;2022-12-29T15:00:54;7.47;;;1.80;;
7621;SDS011;3852;52.284;8.032;2022-12-29T15:05:51;6.47;;;1.73;;
7621;SDS011;3852;52.284;8.032;2022-12-29T15:08:27;3.87;;;1.70;;
7621;SDS011;3852;52.284;8.032;2022-12-29T15:11:01;9.10;;;3.30;;
7621;SDS011;3852;52.284;8.032;2022-12-29T15:13:37;9.43;;;2.10;;
7621;SDS011;3852;52.284;8.032;2022-12-29T15:16:23;8.03;;;2.07;;
7621;SDS011;3852;52.284;8.032;2022-12-29T15:18:54;4.67;;;1.73;;
7621;SDS011;3852;52.284;8.032;2022-12-29T15:21:25;5.03;;;1.80;;
7621;SDS011;3852;52.284;8.032;2022-12-29T15:23:57;4.60;;;2.00;;
7621;SDS011;3852;52.284;8.032;2022-12-29T15:26:23;9.17;;;2.30;;
7621;SDS011;3852;52.284;8.032;2022-12-29T15:29:26;5.23;;;1.63;;
7621;SDS011;3852;52.284;8.032;2022-12-29T15:32:00;7.03;;;2.00;;
7621;SDS011;3852;52.284;8.032;2022-12-29T15:34:49;5.30;;;2.17;;
7621;SDS011;3852;52.284;8.032;2022-12-29T15:37:25;4.90;;;1.90;;
7621;SDS011;3852;52.284;8.032;2022-12-29T15:39:54;7.00;;;1.90;;
7621;SDS011;3852;52.284;8.032;2022-12-29T15:45:05;4.43;;;1.80;;
7621;SDS011;3852;52.284;8.032;2022-12-29T15:47:35;3.90;;;1.97;;
7621;SDS011;3852;52.284;8.032;2022-12-29T15:50:06;5.07;;;1.90;;
7621;SDS011;3852;52.284;8.032;2022-12-29T15:52:56;4.53;;;1.93;;
7621;SDS011;3852;52.284;8.032;2022-12-29T15:55:28;7.10;;;2.07;;
7621;SDS011;3852;52.284;8.032;2022-12-29T15:57:59;5.17;;;1.90;;
7621;SDS011;3852;52.284;8.032;2022-12-29T16:00:32;4.87;;;2.10;;
7621;SDS011;3852;52.284;8.032;2022-12-29T16:03:02;6.67;;;2.03;;
7621;SDS011;3852;52.284;8.032;2022-12-29T16:05:34;8.10;;;2.20;;
7621;SDS011;3852;52.284;8.032;2022-12-29T16:08:03;6.17;;;2.13;;
7621;SDS011;3852;52.284;8.032;2022-12-29T16:10:47;4.80;;;1.60;;
7621;SDS011;3852;52.284;8.032;2022-12-29T16:13:28;4.30;;;1.60;;
7621;SDS011;3852;52.284;8.032;2022-12-29T16:16:01;4.93;;;1.50;;
7621;SDS011;3852;52.284;8.032;2022-12-29T16:18:54;3.13;;;1.60;;
7621;SDS011;3852;52.284;8.032;2022-12-29T16:23:53;3.07;;;1.60;;
7621;SDS011;3852;52.284;8.032;2022-12-29T16:26:23;5.20;;;1.70;;
7621;SDS011;3852;52.284;8.032;2022-12-29T16:28:50;7.40;;;1.70;;
7621;SDS011;3852;52.284;8.032;2022-12-29T16:31:25;3.00;;;1.33;;
7621;SDS011;3852;52.284;8.032;2022-12-29T16:34:19;4.33;;;1.47;;
7621;SDS011;3852;52.284;8.032;2022-12-29T16:39:29;1.83;;;1.57;;
7621;SDS011;3852;52.284;8.032;2022-12-29T16:41:59;4.00;;;1.30;;
7621;SDS011;3852;52.284;8.032;2022-12-29T16:44:26;3.60;;;1.40;;
7621;SDS011;3852;52.284;8.032;2022-12-29T16:46:59;4.87;;;1.70;;
7621;SDS011;3852;52.284;8.032;2022-12-29T16:49:34;6.37;;;1.93;;
7621;SDS011;3852;52.284;8.032;2022-12-29T16:52:13;3.70;;;1.73;;
7621;SDS011;3852;52.284;8.032;2022-12-29T16:54:48;2.53;;;1.67;;
7621;SDS011;3852;52.284;8.032;2022-12-29T16:57:23;5.23;;;1.73;;
7621;SDS011;3852;52.284;8.032;2022-12-29T16:59:54;3.63;;;1.90;;
7621;SDS011;3852;52.284;8.032;2022-12-29T17:02:28;3.57;;;1.70;;
7621;SDS011;3852;52.284;8.032;2022-12-29T17:04:56;2.43;;;1.90;;
7621;SDS011;3852;52.284;8.032;2022-12-29T17:07:23;3.47;;;1.80;;
7621;SDS011;3852;52.284;8.032;2022-12-29T17:09:51;4.10;;;1.97;;
7621;SDS011;3852;52.284;8.032;2022-12-29T17:12:28;3.33;;;1.80;;
7621;SDS011;3852;52.284;8.032;2022-12-29T17:15:05;4.20;;;2.17;;
7621;SDS011;3852;52.284;8.032;2022-12-29T17:17:43;6.33;;;2.10;;
7621;SDS011;3852;52.284;8.032;2022-12-29T17:22:47;4.70;;;2.03;;
7621;SDS011;3852;52.284;8.032;2022-12-29T17:25:16;3.03;;;2.20;;
7621;SDS011;3852;52.284;8.032;2022-12-29T17:28:05;5.10;;;2.10;;
7621;SDS011;3852;52.284;8.032;2022-12-29T17:30:46;3.10;;;1.90;;
7621;SDS011;3852;52.284;8.032;2022-12-29T17:33:16;4.63;;;2.00;;
7621;SDS011;3852;52.284;8.032;2022-12-29T17:35:45;4.93;;;1.97;;
7621;SDS011;3852;52.284;8.032;2022-12-29T17:40:46;7.63;;;2.03;;
7621;SDS011;3852;52.284;8.032;2022-12-29T17:43:13;7.37;;;2.00;;
7621;SDS011;3852;52.284;8.032;2022-12-29T17:45:40;4.27;;;1.90;;
7621;SDS011;3852;52.284;8.032;2022-12-29T17:48:11;6.60;;;1.83;;
7621;SDS011;3852;52.284;8.032;2022-12-29T17:50:38;4.23;;;1.87;;
7621;SDS011;3852;52.284;8.032;2022-12-29T17:53:05;9.83;;;4.73;;
7621;SDS011;3852;52.284;8.032;2022-12-29T17:55:39;4.53;;;1.97;;
7621;SDS011;3852;52.284;8.032;2022-12-29T17:58:25;5.57;;;2.03;;
7621;SDS011;3852;52.284;8.032;2022-12-29T18:00:56;5.30;;;1.87;;
7621;SDS011;3852;52.284;8.032;2022-12-29T18:03:28;7.33;;;2.10;;
7621;SDS011;3852;52.284;8.032;2022-12-29T18:05:57;6.30;;;1.90;;
7621;SDS011;3852;52.284;8.032;2022-12-29T18:08:24;5.70;;;1.87;;
7621;SDS011;3852;52.284;8.032;2022-12-29T18:10:50;3.17;;;1.70;;
7621;SDS011;3852;52.284;8.032;2022-12-29T18:13:22;3.50;;;1.77;;
7621;SDS011;3852;52.284;8.032;2022-12-29T18:15:56;5.03;;;1.90;;
7621;SDS011;3852;52.284;8.032;2022-12-29T18:18:23;4.30;;;1.70;;
7621;SDS011;3852;52.284;8.032;2022-12-29T18:20:52;4.40;;;1.80;;
7621;SDS011;3852;52.284;8.032;2022-12-29T18:23:22;7.27;;;1.60;;